sensor_id;sensor_type;location;lat;lon;timestamp;P1;durP1;ratioP1;P2;durP2;ratioP2
25437;SDS011;13364;49.084;9.978;2023-06-22T00:01:19;10.70;;;8.90;;
25437;SDS011;13364;49.084;9.978;2023-06-22T00:03:47;13.55;;;9.55;;
25437;SDS011;13364;49.084;9.978;2023-06-22T00:06:15;12.23;;;9.85;;
25437;SDS011;13364;49.084;9.978;2023-06-22T00:08:42;11.77;;;10.05;;
25437;SDS011;13364;49.084;9.978;2023-06-22T00:11:09;11.77;;;9.82;;
25437;SDS011;13364;49.084;9.978;2023-06-22T00:13:37;11.82;;;10.00;;
25437;SDS011;13364;49.084;9.978;2023-06-22T00:16:10;14.13;;;10.60;;
25437;SDS011;13364;49.084;9.978;2023-06-22T00:18:37;13.95;;;10.40;;
25437;SDS011;13364;49.084;9.978;2023-06-22T00:21:04;14.93;;;10.02;;
25437;SDS011;13364;49.084;9.978;2023-06-22T00:23:32;15.52;;;10.48;;
25437;SDS011;13364;49.084;9.978;2023-06-22T00:26:01;14.75;;;10.40;;
25437;SDS011;13364;49.084;9.978;2023-06-22T00:28:28;13.63;;;9.77;;
25437;SDS011;13364;49.084;9.978;2023-06-22T00:30:55;15.45;;;9.98;;
25437;SDS011;13364;49.084;9.978;2023-06-22T00:33:24;14.13;;;9.77;;
25437;SDS011;13364;49.084;9.978;2023-06-22T00:35:51;13.40;;;10.50;;
25437;SDS011;13364;49.084;9.978;2023-06-22T00:38:19;11.63;;;9.73;;
25437;SDS011;13364;49.084;9.978;2023-06-22T00:40:47;11.98;;;10.15;;
25437;SDS011;13364;49.084;9.978;2023-06-22T00:43:14;11.60;;;10.27;;
25437;SDS011;13364;49.084;9.978;2023-06-22T00:45:41;14.05;;;10.60;;
25437;SDS011;13364;49.084;9.978;2023-06-22T00:48:08;11.77;;;10.07;;
25437;SDS011;13364;49.084;9.978;2023-06-22T00:50:36;14.93;;;10.63;;
25437;SDS011;13364;49.084;9.978;2023-06-22T00:53:07;16.85;;;11.40;;
25437;SDS011;13364;49.084;9.978;2023-06-22T00:55:38;13.45;;;11.38;;
25437;SDS011;13364;49.084;9.978;2023-06-22T00:58:10;13.35;;;11.32;;
25437;SDS011;13364;49.084;9.978;2023-06-22T01:00:40;13.63;;;11.52;;
25437;SDS011;13364;49.084;9.978;2023-06-22T01:03:08;16.25;;;12.05;;
25437;SDS011;13364;49.084;9.978;2023-06-22T01:05:36;15.55;;;11.40;;
25437;SDS011;13364;49.084;9.978;2023-06-22T01:08:06;16.92;;;11.15;;
25437;SDS011;13364;49.084;9.978;2023-06-22T01:11:17;14.75;;;10.90;;
25437;SDS011;13364;49.084;9.978;2023-06-22T01:13:57;14.40;;;10.25;;
25437;SDS011;13364;49.084;9.978;2023-06-22T01:16:34;14.70;;;11.00;;
25437;SDS011;13364;49.084;9.978;2023-06-22T01:21:51;13.88;;;11.50;;
25437;SDS011;13364;49.084;9.978;2023-06-22T01:30:16;12.88;;;10.23;;
25437;SDS011;13364;49.084;9.978;2023-06-22T01:32:45;16.93;;;11.37;;
25437;SDS011;13364;49.084;9.978;2023-06-22T01:35:13;11.93;;;10.37;;
25437;SDS011;13364;49.084;9.978;2023-06-22T01:37:42;13.73;;;10.63;;
25437;SDS011;13364;49.084;9.978;2023-06-22T01:40:10;15.13;;;11.50;;
25437;SDS011;13364;49.084;9.978;2023-06-22T01:42:38;13.18;;;10.40;;
25437;SDS011;13364;49.084;9.978;2023-06-22T01:45:06;16.17;;;11.82;;
25437;SDS011;13364;49.084;9.978;2023-06-22T01:47:36;17.42;;;11.48;;
25437;SDS011;13364;49.084;9.978;2023-06-22T01:50:04;16.17;;;11.23;;
25437;SDS011;13364;49.084;9.978;2023-06-22T01:52:32;13.73;;;11.82;;
25437;SDS011;13364;49.084;9.978;2023-06-22T01:55:00;14.20;;;11.43;;
25437;SDS011;13364;49.084;9.978;2023-06-22T01:57:27;13.38;;;9.65;;
25437;SDS011;13364;49.084;9.978;2023-06-22T02:00:03;11.75;;;10.30;;
25437;SDS011;13364;49.084;9.978;2023-06-22T02:05:52;14.00;;;9.48;;
25437;SDS011;13364;49.084;9.978;2023-06-22T02:08:26;11.27;;;9.25;;
25437;SDS011;13364;49.084;9.978;2023-06-22T02:10:58;14.80;;;10.25;;
25437;SDS011;13364;49.084;9.978;2023-06-22T02:13:27;13.73;;;11.03;;
25437;SDS011;13364;49.084;9.978;2023-06-22T02:15:54;13.88;;;11.55;;
25437;SDS011;13364;49.084;9.978;2023-06-22T02:18:22;15.35;;;12.88;;
25437;SDS011;13364;49.084;9.978;2023-06-22T02:20:49;19.05;;;12.65;;
25437;SDS011;13364;49.084;9.978;2023-06-22T02:23:16;15.32;;;12.45;;
25437;SDS011;13364;49.084;9.978;2023-06-22T02:25:43;17.73;;;12.48;;
25437;SDS011;13364;49.084;9.978;2023-06-22T02:28:10;20.98;;;13.60;;
25437;SDS011;13364;49.084;9.978;2023-06-22T02:30:38;17.48;;;13.00;;
25437;SDS011;13364;49.084;9.978;2023-06-22T02:33:06;17.13;;;12.85;;
25437;SDS011;13364;49.084;9.978;2023-06-22T02:35:33;16.70;;;12.73;;
25437;SDS011;13364;49.084;9.978;2023-06-22T02:38:03;19.27;;;12.98;;
25437;SDS011;13364;49.084;9.978;2023-06-22T02:40:30;17.02;;;11.80;;
25437;SDS011;13364;49.084;9.978;2023-06-22T02:42:58;16.60;;;12.20;;
25437;SDS011;13364;49.084;9.978;2023-06-22T02:45:28;15.57;;;12.63;;
25437;SDS011;13364;49.084;9.978;2023-06-22T02:47:56;18.13;;;12.85;;
25437;SDS011;13364;49.084;9.978;2023-06-22T02:50:24;19.30;;;12.77;;
25437;SDS011;13364;49.084;9.978;2023-06-22T02:52:52;20.48;;;13.52;;
25437;SDS011;13364;49.084;9.978;2023-06-22T02:55:19;21.52;;;13.50;;
25437;SDS011;13364;49.084;9.978;2023-06-22T02:57:53;18.88;;;13.82;;
25437;SDS011;13364;49.084;9.978;2023-06-22T03:00:20;15.27;;;13.23;;
25437;SDS011;13364;49.084;9.978;2023-06-22T03:02:48;18.33;;;13.32;;
25437;SDS011;13364;49.084;9.978;2023-06-22T03:05:17;22.00;;;14.20;;
25437;SDS011;13364;49.084;9.978;2023-06-22T03:07:46;19.88;;;14.68;;
25437;SDS011;13364;49.084;9.978;2023-06-22T03:10:14;24.73;;;14.50;;
25437;SDS011;13364;49.084;9.978;2023-06-22T03:12:42;19.83;;;15.75;;
25437;SDS011;13364;49.084;9.978;2023-06-22T03:15:11;20.50;;;15.15;;
25437;SDS011;13364;49.084;9.978;2023-06-22T03:17:39;22.10;;;15.40;;
25437;SDS011;13364;49.084;9.978;2023-06-22T03:20:08;26.20;;;16.05;;
25437;SDS011;13364;49.084;9.978;2023-06-22T03:22:38;22.92;;;15.85;;
25437;SDS011;13364;49.084;9.978;2023-06-22T03:25:06;21.23;;;15.82;;
25437;SDS011;13364;49.084;9.978;2023-06-22T03:27:41;23.02;;;15.40;;
25437;SDS011;13364;49.084;9.978;2023-06-22T03:30:11;19.35;;;15.35;;
25437;SDS011;13364;49.084;9.978;2023-06-22T03:32:38;21.85;;;14.65;;
25437;SDS011;13364;49.084;9.978;2023-06-22T03:35:06;20.40;;;15.98;;
25437;SDS011;13364;49.084;9.978;2023-06-22T03:40:02;22.38;;;15.30;;
25437;SDS011;13364;49.084;9.978;2023-06-22T03:42:34;21.38;;;15.57;;
25437;SDS011;13364;49.084;9.978;2023-06-22T03:45:04;17.85;;;13.90;;
25437;SDS011;13364;49.084;9.978;2023-06-22T03:47:32;18.48;;;14.70;;
25437;SDS011;13364;49.084;9.978;2023-06-22T03:49:59;18.67;;;14.18;;
25437;SDS011;13364;49.084;9.978;2023-06-22T03:52:27;24.83;;;15.35;;
25437;SDS011;13364;49.084;9.978;2023-06-22T03:54:54;19.65;;;14.63;;
25437;SDS011;13364;49.084;9.978;2023-06-22T03:57:21;24.83;;;14.90;;
25437;SDS011;13364;49.084;9.978;2023-06-22T03:59:48;18.60;;;14.15;;
25437;SDS011;13364;49.084;9.978;2023-06-22T04:02:15;18.75;;;13.52;;
25437;SDS011;13364;49.084;9.978;2023-06-22T04:04:42;21.23;;;13.95;;
25437;SDS011;13364;49.084;9.978;2023-06-22T04:07:09;18.65;;;13.57;;
25437;SDS011;13364;49.084;9.978;2023-06-22T04:09:36;21.02;;;14.27;;
25437;SDS011;13364;49.084;9.978;2023-06-22T04:12:04;17.77;;;14.38;;
25437;SDS011;13364;49.084;9.978;2023-06-22T04:14:31;16.67;;;13.45;;
25437;SDS011;13364;49.084;9.978;2023-06-22T04:16:58;16.02;;;13.00;;
25437;SDS011;13364;49.084;9.978;2023-06-22T04:19:25;17.05;;;13.82;;
25437;SDS011;13364;49.084;9.978;2023-06-22T04:21:52;18.02;;;12.98;;
25437;SDS011;13364;49.084;9.978;2023-06-22T04:24:20;15.48;;;12.90;;
25437;SDS011;13364;49.084;9.978;2023-06-22T04:26:47;20.02;;;13.82;;
25437;SDS011;13364;49.084;9.978;2023-06-22T04:29:14;14.13;;;12.55;;
25437;SDS011;13364;49.084;9.978;2023-06-22T04:31:41;19.95;;;13.25;;
25437;SDS011;13364;49.084;9.978;2023-06-22T04:34:08;15.02;;;11.73;;
25437;SDS011;13364;49.084;9.978;2023-06-22T04:36:40;13.88;;;11.93;;
25437;SDS011;13364;49.084;9.978;2023-06-22T04:39:08;17.33;;;12.05;;
25437;SDS011;13364;49.084;9.978;2023-06-22T04:41:37;17.77;;;11.63;;
25437;SDS011;13364;49.084;9.978;2023-06-22T04:44:10;18.83;;;11.75;;
25437;SDS011;13364;49.084;9.978;2023-06-22T04:46:39;16.83;;;12.23;;
25437;SDS011;13364;49.084;9.978;2023-06-22T04:49:09;16.20;;;12.52;;
25437;SDS011;13364;49.084;9.978;2023-06-22T04:51:41;20.30;;;12.93;;
25437;SDS011;13364;49.084;9.978;2023-06-22T04:54:09;15.45;;;12.35;;
25437;SDS011;13364;49.084;9.978;2023-06-22T04:59:37;15.15;;;12.93;;
25437;SDS011;13364;49.084;9.978;2023-06-22T05:02:05;18.63;;;12.23;;
25437;SDS011;13364;49.084;9.978;2023-06-22T05:04:33;14.20;;;11.88;;
25437;SDS011;13364;49.084;9.978;2023-06-22T05:09:30;15.10;;;11.45;;
25437;SDS011;13364;49.084;9.978;2023-06-22T05:11:57;14.95;;;11.15;;
25437;SDS011;13364;49.084;9.978;2023-06-22T05:14:26;17.40;;;12.52;;
25437;SDS011;13364;49.084;9.978;2023-06-22T05:16:53;16.85;;;11.00;;
25437;SDS011;13364;49.084;9.978;2023-06-22T05:19:20;15.13;;;11.95;;
25437;SDS011;13364;49.084;9.978;2023-06-22T05:21:47;14.43;;;11.55;;
25437;SDS011;13364;49.084;9.978;2023-06-22T05:24:14;15.82;;;11.57;;
25437;SDS011;13364;49.084;9.978;2023-06-22T05:26:41;17.52;;;11.90;;
25437;SDS011;13364;49.084;9.978;2023-06-22T05:29:08;13.02;;;11.10;;
25437;SDS011;13364;49.084;9.978;2023-06-22T05:31:35;16.63;;;11.50;;
25437;SDS011;13364;49.084;9.978;2023-06-22T05:34:02;17.15;;;11.27;;
25437;SDS011;13364;49.084;9.978;2023-06-22T05:36:29;14.10;;;11.20;;
25437;SDS011;13364;49.084;9.978;2023-06-22T05:38:57;15.52;;;11.70;;
25437;SDS011;13364;49.084;9.978;2023-06-22T05:41:24;15.88;;;11.82;;
25437;SDS011;13364;49.084;9.978;2023-06-22T05:43:52;13.15;;;10.63;;
25437;SDS011;13364;49.084;9.978;2023-06-22T05:46:19;11.85;;;9.48;;
25437;SDS011;13364;49.084;9.978;2023-06-22T05:48:46;14.10;;;10.80;;
25437;SDS011;13364;49.084;9.978;2023-06-22T05:51:13;14.55;;;9.95;;
25437;SDS011;13364;49.084;9.978;2023-06-22T05:53:40;13.85;;;11.00;;
25437;SDS011;13364;49.084;9.978;2023-06-22T05:56:07;15.05;;;10.65;;
25437;SDS011;13364;49.084;9.978;2023-06-22T05:58:35;13.77;;;9.70;;
25437;SDS011;13364;49.084;9.978;2023-06-22T06:01:02;13.55;;;10.38;;
25437;SDS011;13364;49.084;9.978;2023-06-22T06:03:29;13.95;;;10.48;;
25437;SDS011;13364;49.084;9.978;2023-06-22T06:08:29;13.48;;;10.35;;
25437;SDS011;13364;49.084;9.978;2023-06-22T06:10:56;12.20;;;9.80;;
25437;SDS011;13364;49.084;9.978;2023-06-22T06:13:24;12.35;;;9.73;;
25437;SDS011;13364;49.084;9.978;2023-06-22T06:15:51;13.93;;;9.98;;
25437;SDS011;13364;49.084;9.978;2023-06-22T06:18:21;13.27;;;9.60;;
25437;SDS011;13364;49.084;9.978;2023-06-22T06:20:48;14.18;;;9.40;;
25437;SDS011;13364;49.084;9.978;2023-06-22T06:23:15;12.27;;;9.55;;
25437;SDS011;13364;49.084;9.978;2023-06-22T06:25:43;13.23;;;10.18;;
25437;SDS011;13364;49.084;9.978;2023-06-22T06:28:10;11.15;;;9.27;;
25437;SDS011;13364;49.084;9.978;2023-06-22T06:30:37;12.13;;;9.35;;
25437;SDS011;13364;49.084;9.978;2023-06-22T06:33:04;12.90;;;9.27;;
25437;SDS011;13364;49.084;9.978;2023-06-22T06:35:35;12.90;;;9.80;;
25437;SDS011;13364;49.084;9.978;2023-06-22T06:38:04;10.98;;;9.88;;
25437;SDS011;13364;49.084;9.978;2023-06-22T06:40:31;14.30;;;8.77;;
25437;SDS011;13364;49.084;9.978;2023-06-22T06:42:59;9.63;;;8.27;;
25437;SDS011;13364;49.084;9.978;2023-06-22T06:45:26;11.98;;;9.50;;
25437;SDS011;13364;49.084;9.978;2023-06-22T06:47:54;10.45;;;7.95;;
25437;SDS011;13364;49.084;9.978;2023-06-22T06:50:22;11.65;;;8.52;;
25437;SDS011;13364;49.084;9.978;2023-06-22T06:52:49;15.00;;;8.35;;
25437;SDS011;13364;49.084;9.978;2023-06-22T06:57:46;11.15;;;8.48;;
25437;SDS011;13364;49.084;9.978;2023-06-22T07:00:14;12.88;;;8.50;;
25437;SDS011;13364;49.084;9.978;2023-06-22T07:02:43;13.63;;;8.95;;
25437;SDS011;13364;49.084;9.978;2023-06-22T07:05:12;11.55;;;8.18;;
25437;SDS011;13364;49.084;9.978;2023-06-22T07:07:39;10.20;;;8.07;;
25437;SDS011;13364;49.084;9.978;2023-06-22T07:10:08;9.70;;;7.40;;
25437;SDS011;13364;49.084;9.978;2023-06-22T07:12:35;9.60;;;8.10;;
25437;SDS011;13364;49.084;9.978;2023-06-22T07:15:03;9.25;;;8.25;;
25437;SDS011;13364;49.084;9.978;2023-06-22T07:17:32;10.88;;;7.15;;
25437;SDS011;13364;49.084;9.978;2023-06-22T07:19:59;9.38;;;7.75;;
25437;SDS011;13364;49.084;9.978;2023-06-22T07:22:27;11.23;;;8.00;;
25437;SDS011;13364;49.084;9.978;2023-06-22T07:24:54;9.15;;;7.18;;
25437;SDS011;13364;49.084;9.978;2023-06-22T07:27:21;8.90;;;7.35;;
25437;SDS011;13364;49.084;9.978;2023-06-22T07:29:48;9.32;;;7.70;;
25437;SDS011;13364;49.084;9.978;2023-06-22T07:32:15;10.13;;;7.32;;
25437;SDS011;13364;49.084;9.978;2023-06-22T07:34:42;8.95;;;6.93;;
25437;SDS011;13364;49.084;9.978;2023-06-22T07:37:10;10.82;;;7.00;;
25437;SDS011;13364;49.084;9.978;2023-06-22T07:39:37;12.32;;;7.60;;
25437;SDS011;13364;49.084;9.978;2023-06-22T07:42:04;12.20;;;7.35;;
25437;SDS011;13364;49.084;9.978;2023-06-22T07:44:31;12.02;;;6.93;;
25437;SDS011;13364;49.084;9.978;2023-06-22T07:46:58;7.95;;;6.38;;
25437;SDS011;13364;49.084;9.978;2023-06-22T07:49:27;9.93;;;7.22;;
25437;SDS011;13364;49.084;9.978;2023-06-22T07:51:54;8.65;;;6.45;;
25437;SDS011;13364;49.084;9.978;2023-06-22T07:54:21;11.50;;;6.65;;
25437;SDS011;13364;49.084;9.978;2023-06-22T07:56:48;9.48;;;6.30;;
25437;SDS011;13364;49.084;9.978;2023-06-22T07:59:16;9.50;;;6.50;;
25437;SDS011;13364;49.084;9.978;2023-06-22T08:01:43;6.70;;;6.00;;
25437;SDS011;13364;49.084;9.978;2023-06-22T08:04:10;9.88;;;5.90;;
25437;SDS011;13364;49.084;9.978;2023-06-22T08:06:38;7.93;;;5.57;;
25437;SDS011;13364;49.084;9.978;2023-06-22T08:09:05;9.32;;;5.50;;
25437;SDS011;13364;49.084;9.978;2023-06-22T08:11:32;8.32;;;6.22;;
25437;SDS011;13364;49.084;9.978;2023-06-22T08:14:00;11.02;;;5.88;;
25437;SDS011;13364;49.084;9.978;2023-06-22T08:16:27;10.32;;;6.07;;
25437;SDS011;13364;49.084;9.978;2023-06-22T08:18:54;9.57;;;5.13;;
25437;SDS011;13364;49.084;9.978;2023-06-22T08:21:21;8.70;;;5.75;;
25437;SDS011;13364;49.084;9.978;2023-06-22T08:23:49;7.47;;;5.35;;
25437;SDS011;13364;49.084;9.978;2023-06-22T08:26:16;7.07;;;4.80;;
25437;SDS011;13364;49.084;9.978;2023-06-22T08:28:43;5.78;;;5.20;;
25437;SDS011;13364;49.084;9.978;2023-06-22T08:31:10;9.75;;;5.63;;
25437;SDS011;13364;49.084;9.978;2023-06-22T08:33:39;9.40;;;5.82;;
25437;SDS011;13364;49.084;9.978;2023-06-22T08:36:15;7.50;;;5.90;;
25437;SDS011;13364;49.084;9.978;2023-06-22T08:38:42;7.78;;;5.30;;
25437;SDS011;13364;49.084;9.978;2023-06-22T08:41:10;7.75;;;4.85;;
25437;SDS011;13364;49.084;9.978;2023-06-22T08:43:38;6.82;;;5.13;;
25437;SDS011;13364;49.084;9.978;2023-06-22T08:46:05;8.25;;;4.93;;
25437;SDS011;13364;49.084;9.978;2023-06-22T08:48:32;7.10;;;5.25;;
25437;SDS011;13364;49.084;9.978;2023-06-22T08:51:00;8.25;;;5.05;;
25437;SDS011;13364;49.084;9.978;2023-06-22T08:53:27;6.55;;;4.80;;
25437;SDS011;13364;49.084;9.978;2023-06-22T08:55:54;10.30;;;5.38;;
25437;SDS011;13364;49.084;9.978;2023-06-22T08:58:21;8.05;;;5.07;;
25437;SDS011;13364;49.084;9.978;2023-06-22T09:00:50;10.20;;;5.05;;
25437;SDS011;13364;49.084;9.978;2023-06-22T09:03:18;7.88;;;4.95;;
25437;SDS011;13364;49.084;9.978;2023-06-22T09:05:47;9.52;;;5.43;;
25437;SDS011;13364;49.084;9.978;2023-06-22T09:08:14;8.13;;;5.03;;
25437;SDS011;13364;49.084;9.978;2023-06-22T09:10:41;8.93;;;4.90;;
25437;SDS011;13364;49.084;9.978;2023-06-22T09:13:08;10.10;;;4.70;;
25437;SDS011;13364;49.084;9.978;2023-06-22T09:15:35;7.75;;;4.53;;
25437;SDS011;13364;49.084;9.978;2023-06-22T09:18:03;11.25;;;4.90;;
25437;SDS011;13364;49.084;9.978;2023-06-22T09:20:30;8.32;;;5.18;;
25437;SDS011;13364;49.084;9.978;2023-06-22T09:22:58;8.20;;;4.72;;
25437;SDS011;13364;49.084;9.978;2023-06-22T09:25:25;9.27;;;5.32;;
25437;SDS011;13364;49.084;9.978;2023-06-22T09:27:53;10.27;;;4.78;;
25437;SDS011;13364;49.084;9.978;2023-06-22T09:30:20;9.55;;;5.05;;
25437;SDS011;13364;49.084;9.978;2023-06-22T09:32:48;9.15;;;4.95;;
25437;SDS011;13364;49.084;9.978;2023-06-22T09:35:15;7.93;;;5.40;;
25437;SDS011;13364;49.084;9.978;2023-06-22T09:37:42;7.63;;;4.40;;
25437;SDS011;13364;49.084;9.978;2023-06-22T09:40:09;9.30;;;4.82;;
25437;SDS011;13364;49.084;9.978;2023-06-22T09:42:39;8.90;;;4.90;;
25437;SDS011;13364;49.084;9.978;2023-06-22T09:45:08;6.67;;;4.43;;
25437;SDS011;13364;49.084;9.978;2023-06-22T09:47:36;6.00;;;4.90;;
25437;SDS011;13364;49.084;9.978;2023-06-22T09:50:03;11.30;;;5.22;;
25437;SDS011;13364;49.084;9.978;2023-06-22T09:52:31;6.43;;;4.60;;
25437;SDS011;13364;49.084;9.978;2023-06-22T09:55:01;7.78;;;4.72;;
25437;SDS011;13364;49.084;9.978;2023-06-22T09:57:30;7.17;;;4.80;;
25437;SDS011;13364;49.084;9.978;2023-06-22T09:59:57;10.77;;;5.05;;
25437;SDS011;13364;49.084;9.978;2023-06-22T10:02:24;12.80;;;5.43;;
25437;SDS011;13364;49.084;9.978;2023-06-22T10:04:52;9.32;;;5.35;;
25437;SDS011;13364;49.084;9.978;2023-06-22T10:07:19;8.65;;;4.97;;
25437;SDS011;13364;49.084;9.978;2023-06-22T10:09:46;7.70;;;4.70;;
25437;SDS011;13364;49.084;9.978;2023-06-22T10:12:13;8.73;;;4.97;;
25437;SDS011;13364;49.084;9.978;2023-06-22T10:14:40;8.57;;;4.47;;
25437;SDS011;13364;49.084;9.978;2023-06-22T10:17:08;9.13;;;4.55;;
25437;SDS011;13364;49.084;9.978;2023-06-22T10:19:35;10.23;;;4.95;;
25437;SDS011;13364;49.084;9.978;2023-06-22T10:22:04;8.57;;;5.07;;
25437;SDS011;13364;49.084;9.978;2023-06-22T10:24:32;9.48;;;4.78;;
25437;SDS011;13364;49.084;9.978;2023-06-22T10:26:59;11.00;;;4.95;;
25437;SDS011;13364;49.084;9.978;2023-06-22T10:29:26;12.18;;;4.93;;
25437;SDS011;13364;49.084;9.978;2023-06-22T10:31:53;9.57;;;4.93;;
25437;SDS011;13364;49.084;9.978;2023-06-22T10:34:20;9.65;;;4.85;;
25437;SDS011;13364;49.084;9.978;2023-06-22T10:36:47;8.70;;;5.20;;
25437;SDS011;13364;49.084;9.978;2023-06-22T10:39:15;14.13;;;4.72;;
25437;SDS011;13364;49.084;9.978;2023-06-22T10:41:42;15.23;;;5.50;;
25437;SDS011;13364;49.084;9.978;2023-06-22T10:44:09;14.02;;;4.88;;
25437;SDS011;13364;49.084;9.978;2023-06-22T10:46:37;6.70;;;4.60;;
25437;SDS011;13364;49.084;9.978;2023-06-22T10:49:04;11.07;;;5.07;;
25437;SDS011;13364;49.084;9.978;2023-06-22T10:51:31;11.68;;;5.15;;
25437;SDS011;13364;49.084;9.978;2023-06-22T10:53:59;9.63;;;4.90;;
25437;SDS011;13364;49.084;9.978;2023-06-22T10:56:26;7.20;;;4.80;;
25437;SDS011;13364;49.084;9.978;2023-06-22T10:58:53;11.57;;;4.80;;
25437;SDS011;13364;49.084;9.978;2023-06-22T11:01:20;11.70;;;4.82;;
25437;SDS011;13364;49.084;9.978;2023-06-22T11:07:00;8.20;;;5.13;;
25437;SDS011;13364;49.084;9.978;2023-06-22T11:09:27;14.95;;;5.07;;
25437;SDS011;13364;49.084;9.978;2023-06-22T11:11:55;10.63;;;4.82;;
25437;SDS011;13364;49.084;9.978;2023-06-22T11:14:22;10.10;;;5.15;;
25437;SDS011;13364;49.084;9.978;2023-06-22T11:16:50;8.75;;;4.68;;
25437;SDS011;13364;49.084;9.978;2023-06-22T11:19:22;13.38;;;5.10;;
25437;SDS011;13364;49.084;9.978;2023-06-22T11:21:50;9.63;;;5.45;;
25437;SDS011;13364;49.084;9.978;2023-06-22T11:24:17;9.45;;;4.97;;
25437;SDS011;13364;49.084;9.978;2023-06-22T11:26:44;11.15;;;4.70;;
25437;SDS011;13364;49.084;9.978;2023-06-22T11:29:11;9.55;;;5.03;;
25437;SDS011;13364;49.084;9.978;2023-06-22T11:31:57;10.27;;;5.50;;
25437;SDS011;13364;49.084;9.978;2023-06-22T11:34:24;10.07;;;5.35;;
25437;SDS011;13364;49.084;9.978;2023-06-22T11:36:52;14.45;;;5.80;;
25437;SDS011;13364;49.084;9.978;2023-06-22T11:39:19;10.32;;;5.22;;
25437;SDS011;13364;49.084;9.978;2023-06-22T11:41:59;14.13;;;4.95;;
25437;SDS011;13364;49.084;9.978;2023-06-22T11:44:26;11.73;;;4.88;;
25437;SDS011;13364;49.084;9.978;2023-06-22T11:46:53;10.02;;;5.22;;
25437;SDS011;13364;49.084;9.978;2023-06-22T11:49:20;13.77;;;5.80;;
25437;SDS011;13364;49.084;9.978;2023-06-22T11:51:48;12.43;;;5.38;;
25437;SDS011;13364;49.084;9.978;2023-06-22T11:54:15;15.30;;;4.93;;
25437;SDS011;13364;49.084;9.978;2023-06-22T11:56:42;12.07;;;5.22;;
25437;SDS011;13364;49.084;9.978;2023-06-22T11:59:09;10.93;;;5.60;;
25437;SDS011;13364;49.084;9.978;2023-06-22T12:01:36;10.32;;;5.47;;
25437;SDS011;13364;49.084;9.978;2023-06-22T12:04:03;10.38;;;5.38;;
25437;SDS011;13364;49.084;9.978;2023-06-22T12:06:32;9.07;;;5.13;;
25437;SDS011;13364;49.084;9.978;2023-06-22T12:09:01;12.02;;;4.85;;
25437;SDS011;13364;49.084;9.978;2023-06-22T12:11:30;12.55;;;5.40;;
25437;SDS011;13364;49.084;9.978;2023-06-22T12:13:58;12.13;;;5.15;;
25437;SDS011;13364;49.084;9.978;2023-06-22T12:16:28;13.88;;;5.63;;
25437;SDS011;13364;49.084;9.978;2023-06-22T12:18:55;8.85;;;5.40;;
25437;SDS011;13364;49.084;9.978;2023-06-22T12:21:23;16.08;;;5.78;;
25437;SDS011;13364;49.084;9.978;2023-06-22T12:23:50;11.75;;;5.25;;
25437;SDS011;13364;49.084;9.978;2023-06-22T12:26:17;11.75;;;5.07;;
25437;SDS011;13364;49.084;9.978;2023-06-22T12:28:44;13.15;;;5.50;;
25437;SDS011;13364;49.084;9.978;2023-06-22T12:31:11;12.48;;;5.50;;
25437;SDS011;13364;49.084;9.978;2023-06-22T12:33:38;11.95;;;5.60;;
25437;SDS011;13364;49.084;9.978;2023-06-22T12:36:05;11.80;;;4.70;;
25437;SDS011;13364;49.084;9.978;2023-06-22T12:38:32;11.25;;;5.78;;
25437;SDS011;13364;49.084;9.978;2023-06-22T12:41:00;13.60;;;5.65;;
25437;SDS011;13364;49.084;9.978;2023-06-22T12:43:27;18.67;;;5.40;;
25437;SDS011;13364;49.084;9.978;2023-06-22T12:45:54;12.32;;;5.07;;
25437;SDS011;13364;49.084;9.978;2023-06-22T12:48:21;12.00;;;5.10;;
25437;SDS011;13364;49.084;9.978;2023-06-22T12:50:49;13.93;;;5.80;;
25437;SDS011;13364;49.084;9.978;2023-06-22T12:53:16;10.90;;;5.10;;
25437;SDS011;13364;49.084;9.978;2023-06-22T12:55:43;16.05;;;5.72;;
25437;SDS011;13364;49.084;9.978;2023-06-22T12:58:10;13.30;;;5.50;;
25437;SDS011;13364;49.084;9.978;2023-06-22T13:00:37;15.82;;;6.93;;
25437;SDS011;13364;49.084;9.978;2023-06-22T13:03:05;12.73;;;5.78;;
25437;SDS011;13364;49.084;9.978;2023-06-22T13:05:32;9.23;;;5.50;;
25437;SDS011;13364;49.084;9.978;2023-06-22T13:08:01;10.03;;;5.80;;
25437;SDS011;13364;49.084;9.978;2023-06-22T13:10:29;21.92;;;6.18;;
25437;SDS011;13364;49.084;9.978;2023-06-22T13:12:57;12.05;;;5.20;;
25437;SDS011;13364;49.084;9.978;2023-06-22T13:15:30;11.75;;;6.40;;
25437;SDS011;13364;49.084;9.978;2023-06-22T13:17:58;16.17;;;6.45;;
25437;SDS011;13364;49.084;9.978;2023-06-22T13:20:25;10.50;;;5.45;;
25437;SDS011;13364;49.084;9.978;2023-06-22T13:22:52;13.55;;;5.55;;
25437;SDS011;13364;49.084;9.978;2023-06-22T13:25:20;13.38;;;6.55;;
25437;SDS011;13364;49.084;9.978;2023-06-22T13:27:50;17.13;;;6.53;;
25437;SDS011;13364;49.084;9.978;2023-06-22T13:30:17;13.52;;;6.00;;
25437;SDS011;13364;49.084;9.978;2023-06-22T13:32:44;17.60;;;6.30;;
25437;SDS011;13364;49.084;9.978;2023-06-22T13:35:12;11.80;;;5.32;;
25437;SDS011;13364;49.084;9.978;2023-06-22T13:37:39;12.43;;;4.90;;
25437;SDS011;13364;49.084;9.978;2023-06-22T13:40:07;9.55;;;5.55;;
25437;SDS011;13364;49.084;9.978;2023-06-22T13:42:35;11.52;;;5.60;;
25437;SDS011;13364;49.084;9.978;2023-06-22T13:45:02;12.90;;;5.70;;
25437;SDS011;13364;49.084;9.978;2023-06-22T13:47:30;10.38;;;6.00;;
25437;SDS011;13364;49.084;9.978;2023-06-22T13:49:58;16.13;;;6.35;;
25437;SDS011;13364;49.084;9.978;2023-06-22T13:52:25;15.10;;;6.65;;
25437;SDS011;13364;49.084;9.978;2023-06-22T13:54:52;11.15;;;5.50;;
25437;SDS011;13364;49.084;9.978;2023-06-22T13:57:20;11.30;;;6.00;;
25437;SDS011;13364;49.084;9.978;2023-06-22T13:59:47;13.77;;;5.82;;
25437;SDS011;13364;49.084;9.978;2023-06-22T14:02:14;14.85;;;6.75;;
25437;SDS011;13364;49.084;9.978;2023-06-22T14:04:44;10.23;;;5.40;;
25437;SDS011;13364;49.084;9.978;2023-06-22T14:07:20;13.73;;;6.13;;
25437;SDS011;13364;49.084;9.978;2023-06-22T14:09:47;14.27;;;6.05;;
25437;SDS011;13364;49.084;9.978;2023-06-22T14:12:16;13.63;;;6.22;;
25437;SDS011;13364;49.084;9.978;2023-06-22T14:14:44;16.75;;;6.25;;
25437;SDS011;13364;49.084;9.978;2023-06-22T14:17:12;16.08;;;6.55;;
25437;SDS011;13364;49.084;9.978;2023-06-22T14:19:39;11.13;;;5.88;;
25437;SDS011;13364;49.084;9.978;2023-06-22T14:22:06;13.63;;;5.63;;
25437;SDS011;13364;49.084;9.978;2023-06-22T14:24:34;11.55;;;5.65;;
25437;SDS011;13364;49.084;9.978;2023-06-22T14:27:06;13.90;;;5.50;;
25437;SDS011;13364;49.084;9.978;2023-06-22T14:29:35;11.40;;;5.47;;
25437;SDS011;13364;49.084;9.978;2023-06-22T14:32:02;10.68;;;5.50;;
25437;SDS011;13364;49.084;9.978;2023-06-22T14:34:30;14.55;;;5.32;;
25437;SDS011;13364;49.084;9.978;2023-06-22T14:40:16;15.23;;;6.00;;
25437;SDS011;13364;49.084;9.978;2023-06-22T14:42:43;12.95;;;4.82;;
25437;SDS011;13364;49.084;9.978;2023-06-22T14:45:10;12.70;;;5.45;;
25437;SDS011;13364;49.084;9.978;2023-06-22T14:47:39;12.23;;;5.37;;
25437;SDS011;13364;49.084;9.978;2023-06-22T14:50:06;14.88;;;5.40;;
25437;SDS011;13364;49.084;9.978;2023-06-22T14:52:34;12.25;;;5.72;;
25437;SDS011;13364;49.084;9.978;2023-06-22T14:55:01;14.88;;;5.65;;
25437;SDS011;13364;49.084;9.978;2023-06-22T14:57:28;10.63;;;5.30;;
25437;SDS011;13364;49.084;9.978;2023-06-22T14:59:55;12.88;;;5.65;;
25437;SDS011;13364;49.084;9.978;2023-06-22T15:02:22;14.52;;;5.97;;
25437;SDS011;13364;49.084;9.978;2023-06-22T15:04:49;14.80;;;5.78;;
25437;SDS011;13364;49.084;9.978;2023-06-22T15:07:17;14.88;;;5.68;;
25437;SDS011;13364;49.084;9.978;2023-06-22T15:09:44;11.55;;;5.82;;